Time;durP1;ratioP1;P1;durP2;ratioP2;P2;SDS_P1;SDS_P2;PMS_P1;PMS_P2;Temp;Humidity;BMP_temperature;BMP_pressure;BME280_temperature;BME280_humidity;BME280_pressure;Samples;Min_cycle;Max_cycle;Signal;HPM_P1;HPM_P2
2023/08/09 00:00:47;;;;;;;2.17;0.50;;;16.40;99.90;;;;;;4142044;28;20058;-66
2023/08/09 00:02:48;;;;;;;1.27;0.40;;;16.40;99.90;;;;;;4141958;28;20046;-66
2023/08/09 00:04:49;;;;;;;0.82;0.47;;;16.40;99.90;;;;;;4144562;28;20041;-66
2023/08/09 00:06:50;;;;;;;1.45;0.52;;;16.40;99.90;;;;;;4143985;28;20050;-66
2023/08/09 00:08:50;;;;;;;0.82;0.50;;;16.40;99.90;;;;;;4148227;28;20106;-67
2023/08/09 00:10:51;;;;;;;1.10;0.50;;;16.50;99.90;;;;;;4147548;28;20034;-67
2023/08/09 00:12:52;;;;;;;0.70;0.50;;;16.50;99.90;;;;;;4141136;28;20046;-68
2023/08/09 00:14:53;;;;;;;2.05;0.70;;;16.50;99.90;;;;;;4143873;28;20050;-68
2023/08/09 00:16:53;;;;;;;0.47;0.40;;;16.50;99.90;;;;;;4147574;28;20884;-67
2023/08/09 00:18:54;;;;;;;0.40;0.25;;;16.50;99.90;;;;;;4139638;28;20034;-67
2023/08/09 00:20:55;;;;;;;0.38;0.38;;;16.50;99.90;;;;;;4143846;28;20034;-67
2023/08/09 00:22:56;;;;;;;0.38;0.22;;;16.50;99.90;;;;;;4141060;28;20034;-67
2023/08/09 00:24:56;;;;;;;0.30;0.30;;;16.50;99.90;;;;;;4140811;28;20669;-67
2023/08/09 00:26:57;;;;;;;0.77;0.40;;;16.60;99.90;;;;;;4142645;28;20036;-67
2023/08/09 00:28:58;;;;;;;4.85;0.40;;;16.60;99.90;;;;;;4131666;28;20030;-67
2023/08/09 00:30:58;;;;;;;0.70;0.40;;;16.60;99.90;;;;;;4138500;28;20030;-67
2023/08/09 00:32:59;;;;;;;0.32;0.30;;;16.60;99.90;;;;;;4142945;28;20487;-67
2023/08/09 00:34:59;;;;;;;0.88;0.43;;;16.60;99.90;;;;;;4134070;28;20049;-67
2023/08/09 00:37:01;;;;;;;0.43;0.20;;;16.70;99.90;;;;;;4135606;28;20573;-67
2023/08/09 00:39:02;;;;;;;1.10;0.40;;;16.70;99.90;;;;;;4143316;28;20506;-67
2023/08/09 00:41:03;;;;;;;0.93;0.43;;;16.70;99.90;;;;;;4136883;28;20029;-67
2023/08/09 00:43:03;;;;;;;0.73;0.20;;;16.70;99.90;;;;;;4143866;28;20030;-68
2023/08/09 00:45:05;;;;;;;0.50;0.30;;;16.70;99.90;;;;;;4134585;28;20449;-67
2023/08/09 00:47:07;;;;;;;0.38;0.30;;;16.70;99.90;;;;;;4142951;28;20045;-67
2023/08/09 00:49:08;;;;;;;0.50;0.40;;;16.70;99.90;;;;;;4137031;28;20406;-64
2023/08/09 00:51:10;;;;;;;0.45;0.40;;;16.70;99.90;;;;;;4138264;28;20033;-64
2023/08/09 00:53:10;;;;;;;0.20;0.20;;;16.70;99.90;;;;;;4143831;28;20083;-64
2023/08/09 00:55:11;;;;;;;0.30;0.30;;;16.70;99.90;;;;;;4140818;28;21161;-65
2023/08/09 00:57:13;;;;;;;0.20;0.20;;;16.80;99.90;;;;;;4157921;28;20502;-65
2023/08/09 00:59:13;;;;;;;0.20;0.20;;;16.80;99.90;;;;;;4153200;28;20033;-64
2023/08/09 01:01:14;;;;;;;0.22;0.20;;;16.80;99.90;;;;;;4149071;28;20087;-64
2023/08/09 01:03:15;;;;;;;0.85;0.30;;;16.80;99.90;;;;;;4144605;28;20042;-67
2023/08/09 01:05:15;;;;;;;0.40;0.20;;;16.80;99.90;;;;;;4150367;28;20469;-68
2023/08/09 01:07:48;;;;;;;0.60;0.22;;;16.80;99.90;;;;;;4146522;28;20030;-68
2023/08/09 01:10:10;;;;;;;0.95;0.38;;;16.80;99.90;;;;;;4144658;28;20037;-69
2023/08/09 01:12:14;;;;;;;1.27;0.50;;;16.80;99.90;;;;;;4145972;28;20104;-68
2023/08/09 01:14:20;;;;;;;0.20;0.20;;;16.80;99.90;;;;;;4155361;28;20030;-68
2023/08/09 01:16:24;;;;;;;0.45;0.30;;;16.80;99.90;;;;;;4144865;28;20034;-68
2023/08/09 01:18:26;;;;;;;0.20;0.20;;;16.80;99.90;;;;;;4147027;28;20041;-69
2023/08/09 01:20:27;;;;;;;0.55;0.40;;;16.80;99.90;;;;;;4132338;28;20043;-68
2023/08/09 01:22:31;;;;;;;1.75;0.25;;;16.80;99.90;;;;;;4144028;28;20059;-69
2023/08/09 01:24:33;;;;;;;0.60;0.30;;;16.80;99.90;;;;;;4138591;28;20464;-69
2023/08/09 01:26:38;;;;;;;0.43;0.30;;;16.80;99.90;;;;;;4140233;28;20026;-69
2023/08/09 01:28:38;;;;;;;2.08;0.30;;;16.80;99.90;;;;;;4144332;28;20428;-69
2023/08/09 01:30:39;;;;;;;0.40;0.20;;;16.90;99.90;;;;;;4153575;28;20050;-69
2023/08/09 01:32:40;;;;;;;0.20;0.20;;;16.90;99.90;;;;;;4124874;28;20053;-70
2023/08/09 01:34:41;;;;;;;0.55;0.30;;;16.90;99.90;;;;;;4138831;28;20541;-70
2023/08/09 01:36:45;;;;;;;0.30;0.20;;;16.90;99.90;;;;;;4147110;28;20508;-69
2023/08/09 01:38:55;;;;;;;0.28;0.20;;;16.90;99.90;;;;;;4144632;28;20038;-70
2023/08/09 01:40:56;;;;;;;0.20;0.20;;;17.00;99.90;;;;;;4143906;28;20030;-69
2023/08/09 01:42:58;;;;;;;0.32;0.25;;;17.00;99.90;;;;;;4153520;28;20038;-69
2023/08/09 01:44:59;;;;;;;0.57;0.40;;;17.00;99.90;;;;;;4142910;28;20037;-69
2023/08/09 01:47:00;;;;;;;0.20;0.20;;;17.00;99.90;;;;;;4146681;28;20033;-70
2023/08/09 01:49:11;;;;;;;0.60;0.30;;;17.00;99.90;;;;;;4149779;28;20030;-70
2023/08/09 01:51:12;;;;;;;0.30;0.20;;;17.00;99.90;;;;;;4148479;28;20041;-70
2023/08/09 01:53:12;;;;;;;0.40;0.20;;;17.00;99.90;;;;;;4150279;28;20449;-70
2023/08/09 01:55:17;;;;;;;0.60;0.32;;;17.10;99.90;;;;;;4158364;28;20068;-71
2023/08/09 01:57:18;;;;;;;0.20;0.20;;;17.00;99.90;;;;;;4147545;28;20030;-70
2023/08/09 01:59:18;;;;;;;0.35;0.28;;;17.00;99.90;;;;;;4142378;28;20115;-69
2023/08/09 02:01:19;;;;;;;0.55;0.40;;;17.10;99.90;;;;;;4149293;28;20441;-70
2023/08/09 02:03:20;;;;;;;0.30;0.30;;;17.10;99.90;;;;;;4143252;28;20042;-70
2023/08/09 02:05:20;;;;;;;0.30;0.30;;;17.10;99.90;;;;;;4143939;28;20038;-70
2023/08/09 02:07:21;;;;;;;0.60;0.50;;;17.10;99.90;;;;;;4146490;28;20490;-70
2023/08/09 02:09:22;;;;;;;0.65;0.30;;;17.20;99.90;;;;;;4149764;28;20034;-70
2023/08/09 02:11:22;;;;;;;0.70;0.30;;;17.10;99.90;;;;;;4151983;28;20053;-70
2023/08/09 02:13:23;;;;;;;0.30;0.30;;;17.10;99.90;;;;;;4146535;28;20446;-70
2023/08/09 02:15:24;;;;;;;0.35;0.35;;;17.10;99.90;;;;;;4132959;28;20042;-70
2023/08/09 02:17:27;;;;;;;0.63;0.43;;;17.10;99.90;;;;;;4142396;28;20041;-69
2023/08/09 02:19:28;;;;;;;0.35;0.35;;;17.20;99.90;;;;;;4145515;28;20026;-76
2023/08/09 02:21:28;;;;;;;0.30;0.20;;;17.20;99.90;;;;;;4152492;28;20035;-67
2023/08/09 02:23:29;;;;;;;0.40;0.35;;;17.10;99.90;;;;;;4162691;28;20017;-67
2023/08/09 02:25:30;;;;;;;0.22;0.22;;;17.20;99.90;;;;;;4155992;28;20044;-67
2023/08/09 02:27:31;;;;;;;0.47;0.30;;;17.20;99.90;;;;;;4146974;28;20080;-68
2023/08/09 02:29:31;;;;;;;0.68;0.50;;;17.10;99.90;;;;;;4153922;28;20367;-67
2023/08/09 02:31:32;;;;;;;1.90;0.60;;;17.10;99.90;;;;;;4154449;28;20022;-67
2023/08/09 02:33:33;;;;;;;0.38;0.38;;;17.10;99.90;;;;;;4161528;28;20033;-67
2023/08/09 02:35:52;;;;;;;0.50;0.40;;;17.10;99.90;;;;;;4160272;28;20041;-67
2023/08/09 02:37:52;;;;;;;0.30;0.30;;;17.10;99.90;;;;;;4160693;28;20138;-67
2023/08/09 02:39:53;;;;;;;0.47;0.47;;;17.20;99.90;;;;;;4153365;28;20046;-67
2023/08/09 02:41:54;;;;;;;0.50;0.50;;;17.10;99.90;;;;;;4148507;28;20026;-67
2023/08/09 02:43:54;;;;;;;0.57;0.50;;;17.20;99.90;;;;;;4137227;28;20042;-68
2023/08/09 02:45:55;;;;;;;0.40;0.40;;;17.10;99.90;;;;;;4138408;28;20061;-67
2023/08/09 02:47:55;;;;;;;1.08;0.80;;;17.10;99.90;;;;;;4143980;28;20483;-67
2023/08/09 02:49:56;;;;;;;1.35;0.57;;;17.20;99.90;;;;;;4144820;28;20494;-68
2023/08/09 02:51:57;;;;;;;1.02;0.68;;;17.20;99.90;;;;;;4139942;28;20135;-67
2023/08/09 02:54:00;;;;;;;0.82;0.65;;;17.20;99.90;;;;;;4144888;28;20041;-67
2023/08/09 02:56:00;;;;;;;1.02;0.93;;;17.10;99.90;;;;;;4137587;28;20030;-68
2023/08/09 02:58:05;;;;;;;1.13;0.90;;;17.10;99.90;;;;;;4143016;28;20038;-67
2023/08/09 03:00:06;;;;;;;0.75;0.75;;;17.10;99.90;;;;;;4141906;28;20488;-68
2023/08/09 03:02:07;;;;;;;0.80;0.65;;;17.10;99.90;;;;;;4137514;28;20034;-68
2023/08/09 03:04:08;;;;;;;0.60;0.60;;;17.10;99.90;;;;;;4136511;28;20049;-67
2023/08/09 03:06:08;;;;;;;1.10;0.80;;;17.10;99.90;;;;;;4143180;28;20042;-68
2023/08/09 03:08:09;;;;;;;0.60;0.60;;;17.10;99.90;;;;;;4142122;28;20081;-67
2023/08/09 03:10:10;;;;;;;1.38;1.02;;;17.10;99.90;;;;;;4143429;28;20034;-68
2023/08/09 03:12:10;;;;;;;1.13;1.02;;;17.10;99.90;;;;;;4139553;28;20034;-68
2023/08/09 03:14:13;;;;;;;1.58;0.82;;;17.10;99.90;;;;;;4142878;28;20038;-68
2023/08/09 03:16:14;;;;;;;0.95;0.93;;;17.10;99.90;;;;;;4141857;28;20418;-67
2023/08/09 03:18:14;;;;;;;1.00;1.00;;;17.10;99.90;;;;;;4138932;28;20041;-68
2023/08/09 03:20:16;;;;;;;1.02;1.00;;;17.10;99.90;;;;;;4144358;28;20030;-68
2023/08/09 03:22:17;;;;;;;1.13;1.02;;;17.10;99.90;;;;;;4141739;28;20050;-67
2023/08/09 03:24:18;;;;;;;1.05;0.90;;;17.10;99.90;;;;;;4141515;28;20040;-67
2023/08/09 03:26:19;;;;;;;1.92;1.20;;;17.10;99.90;;;;;;4143862;28;20046;-67
2023/08/09 03:28:19;;;;;;;0.98;0.88;;;17.00;99.90;;;;;;4137097;28;20394;-67
2023/08/09 03:30:20;;;;;;;1.15;0.82;;;17.00;99.90;;;;;;4144870;28;20070;-66
2023/08/09 03:32:20;;;;;;;1.60;0.98;;;17.00;99.90;;;;;;4144610;28;20054;-67
2023/08/09 03:34:21;;;;;;;1.02;0.90;;;17.00;99.90;;;;;;4143599;28;20037;-66
2023/08/09 03:36:21;;;;;;;1.25;1.00;;;17.00;99.90;;;;;;4143837;28;20422;-66
2023/08/09 03:38:22;;;;;;;0.90;0.80;;;17.00;99.90;;;;;;4134669;28;20031;-66
2023/08/09 03:40:23;;;;;;;2.00;1.27;;;17.00;99.90;;;;;;4142442;28;20115;-66
2023/08/09 03:42:23;;;;;;;0.73;0.73;;;17.00;99.90;;;;;;4143145;28;20034;-67
2023/08/09 03:44:24;;;;;;;1.52;1.00;;;17.00;99.90;;;;;;4143995;28;20030;-66
2023/08/09 03:46:25;;;;;;;1.10;1.05;;;17.00;99.90;;;;;;4145683;28;20044;-69
2023/08/09 03:48:25;;;;;;;0.90;0.90;;;17.00;99.90;;;;;;4137646;28;20393;-66
2023/08/09 03:50:26;;;;;;;1.40;0.98;;;17.00;99.90;;;;;;4145300;28;20121;-66
2023/08/09 03:52:27;;;;;;;1.20;1.10;;;17.00;99.90;;;;;;4142299;28;20505;-66
2023/08/09 03:54:29;;;;;;;1.10;1.00;;;17.00;99.90;;;;;;4158094;28;20041;-66
2023/08/09 03:56:29;;;;;;;1.30;1.00;;;16.90;99.90;;;;;;4140871;28;20048;-66
2023/08/09 03:58:30;;;;;;;2.28;0.98;;;16.90;99.90;;;;;;4142914;28;20038;-67
2023/08/09 04:00:32;;;;;;;1.70;0.90;;;16.90;99.90;;;;;;4146821;28;20038;-66
2023/08/09 04:02:32;;;;;;;0.90;0.90;;;16.90;99.90;;;;;;4154008;28;20045;-66
2023/08/09 04:04:34;;;;;;;7.95;1.10;;;16.90;99.90;;;;;;4143849;28;20030;-67
2023/08/09 04:06:35;;;;;;;1.38;1.08;;;16.90;99.90;;;;;;4140175;28;20033;-66
2023/08/09 04:08:37;;;;;;;2.55;1.15;;;16.90;99.90;;;;;;4142112;28;20030;-66
2023/08/09 04:10:38;;;;;;;1.40;1.30;;;16.90;99.90;;;;;;4152868;28;20026;-67
2023/08/09 04:12:38;;;;;;;1.60;1.00;;;16.80;99.90;;;;;;4149714;28;20033;-67
2023/08/09 04:14:39;;;;;;;1.20;1.10;;;16.80;99.90;;;;;;4135124;28;20444;-67
2023/08/09 04:16:39;;;;;;;1.40;1.30;;;16.80;99.90;;;;;;4139221;28;20088;-66
2023/08/09 04:18:40;;;;;;;1.00;0.90;;;16.90;99.90;;;;;;4141726;28;20038;-66
2023/08/09 04:20:43;;;;;;;1.45;1.02;;;16.80;99.90;;;;;;4144923;28;20469;-67
2023/08/09 04:22:43;;;;;;;;;;;16.80;99.90;;;;;;4153773;28;20033;-67
2023/08/09 04:24:44;;;;;;;1.88;1.25;;;16.80;99.90;;;;;;4155780;28;19928;-66
2023/08/09 04:26:45;;;;;;;1.10;1.00;;;16.80;99.90;;;;;;4159152;28;20033;-67
2023/08/09 04:28:45;;;;;;;1.50;1.30;;;16.80;99.90;;;;;;4151079;28;20073;-66
2023/08/09 04:30:46;;;;;;;1.73;1.55;;;16.80;99.90;;;;;;4140971;28;20389;-66
2023/08/09 04:32:47;;;;;;;1.30;1.20;;;16.80;99.90;;;;;;4135493;28;20030;-66
2023/08/09 04:34:47;;;;;;;1.48;1.38;;;16.80;99.90;;;;;;4168486;28;20040;-67
2023/08/09 04:36:48;;;;;;;1.50;1.40;;;16.80;99.90;;;;;;4136620;28;20387;-66
2023/08/09 04:38:48;;;;;;;2.65;2.10;;;16.80;99.90;;;;;;4143387;28;20026;-63
2023/08/09 04:40:49;;;;;;;2.00;1.70;;;16.80;99.90;;;;;;4137080;28;20042;-79
2023/08/09 04:42:49;;;;;;;3.25;1.63;;;16.80;99.90;;;;;;4142069;28;20122;-79
2023/08/09 04:44:50;;;;;;;2.67;2.38;;;16.80;99.90;;;;;;4143873;28;20056;-71
2023/08/09 04:46:51;;;;;;;2.90;2.15;;;16.80;99.90;;;;;;4144028;28;20103;-70
2023/08/09 04:48:51;;;;;;;2.53;2.20;;;16.70;99.90;;;;;;4144046;28;20040;-70
2023/08/09 04:50:52;;;;;;;2.20;2.00;;;16.70;99.90;;;;;;4142645;28;20052;-70
2023/08/09 04:52:54;;;;;;;1.90;1.52;;;16.70;99.90;;;;;;4142171;28;20096;-71
2023/08/09 04:54:55;;;;;;;2.35;2.15;;;16.70;99.90;;;;;;4142532;28;20045;-69
2023/08/09 04:56:56;;;;;;;2.25;2.05;;;16.70;99.90;;;;;;4148445;28;20038;-69
2023/08/09 04:58:56;;;;;;;2.30;2.10;;;16.70;99.90;;;;;;4139884;28;20544;-70
2023/08/09 05:00:57;;;;;;;3.22;2.63;;;16.70;99.90;;;;;;4148450;28;20046;-71
2023/08/09 05:02:58;;;;;;;4.10;2.60;;;16.70;99.90;;;;;;4145260;28;20046;-70
2023/08/09 05:04:58;;;;;;;2.38;2.13;;;16.70;99.90;;;;;;4142526;28;20045;-70
2023/08/09 05:07:00;;;;;;;2.25;2.05;;;16.70;99.90;;;;;;4142873;28;20041;-71
2023/08/09 05:09:01;;;;;;;2.23;2.03;;;16.70;99.90;;;;;;4136708;28;20450;-71
2023/08/09 05:11:02;;;;;;;2.40;2.20;;;16.70;99.90;;;;;;4154600;28;20041;-70
2023/08/09 05:13:03;;;;;;;3.08;2.78;;;16.70;99.90;;;;;;4142112;28;20034;-71
2023/08/09 05:15:04;;;;;;;3.17;2.78;;;16.70;99.90;;;;;;4135665;28;20066;-71
2023/08/09 05:17:04;;;;;;;3.30;2.97;;;16.70;99.90;;;;;;4132369;28;20616;-66
2023/08/09 05:19:05;;;;;;;2.97;2.67;;;16.70;99.90;;;;;;4142361;28;20111;-66
2023/08/09 05:21:06;;;;;;;3.15;2.85;;;16.70;99.90;;;;;;4134049;28;20034;-65
2023/08/09 05:23:06;;;;;;;3.05;2.75;;;16.70;99.90;;;;;;4132307;28;20094;-66
2023/08/09 05:25:07;;;;;;;2.92;2.72;;;16.70;99.90;;;;;;4138356;28;20037;-67
2023/08/09 05:27:08;;;;;;;3.22;2.92;;;16.70;99.90;;;;;;4138047;28;20394;-67
2023/08/09 05:29:09;;;;;;;4.22;3.63;;;16.70;99.90;;;;;;4140617;28;20043;-67
2023/08/09 05:31:09;;;;;;;3.40;3.10;;;16.70;99.90;;;;;;4139743;28;20121;-66
2023/08/09 05:33:10;;;;;;;3.25;2.95;;;16.70;99.90;;;;;;4139005;28;20030;-67
2023/08/09 05:35:10;;;;;;;3.38;3.08;;;16.70;99.90;;;;;;4138604;28;20030;-69
2023/08/09 05:37:11;;;;;;;3.90;3.50;;;16.70;99.90;;;;;;4157255;28;20103;-66
2023/08/09 05:39:12;;;;;;;3.50;3.13;;;16.70;99.90;;;;;;4154097;28;20087;-66
2023/08/09 05:41:13;;;;;;;3.88;3.13;;;16.70;99.90;;;;;;4148978;28;20061;-67
2023/08/09 05:43:14;;;;;;;3.88;3.42;;;16.60;99.90;;;;;;4147095;28;20088;-67
2023/08/09 05:45:14;;;;;;;3.70;3.08;;;16.70;99.90;;;;;;4135042;28;20073;-66
2023/08/09 05:47:15;;;;;;;3.05;2.75;;;16.60;99.90;;;;;;4135616;28;20049;-66
2023/08/09 05:49:15;;;;;;;4.03;3.45;;;16.70;99.90;;;;;;4143027;28;20046;-69
2023/08/09 05:51:16;;;;;;;3.45;2.92;;;16.70;99.90;;;;;;4145593;28;20040;-67
2023/08/09 05:53:17;;;;;;;4.38;3.67;;;16.70;99.90;;;;;;4134284;28;20041;-66
2023/08/09 05:55:17;;;;;;;3.97;3.42;;;16.70;99.90;;;;;;4140853;28;20112;-66
2023/08/09 05:57:18;;;;;;;7.10;3.35;;;16.70;99.90;;;;;;4142952;28;20413;-66
2023/08/09 05:59:19;;;;;;;4.20;2.92;;;16.80;99.90;;;;;;4142428;28;20034;-66
2023/08/09 06:01:20;;;;;;;3.42;2.55;;;16.80;99.90;;;;;;4141501;28;20443;-66
2023/08/09 06:03:21;;;;;;;4.57;3.22;;;16.80;99.90;;;;;;4142383;28;20410;-66
2023/08/09 06:05:25;;;;;;;3.65;3.30;;;16.80;99.90;;;;;;4140044;28;20038;-66
2023/08/09 06:07:27;;;;;;;5.20;3.72;;;16.70;99.90;;;;;;4145612;28;20040;-66
2023/08/09 06:09:28;;;;;;;3.97;3.58;;;16.70;99.90;;;;;;4142026;28;20066;-66
2023/08/09 06:11:29;;;;;;;3.72;2.97;;;16.70;99.90;;;;;;4141238;28;20030;-66
2023/08/09 06:13:30;;;;;;;3.67;3.22;;;16.70;99.90;;;;;;4143132;28;20050;-67
2023/08/09 06:15:31;;;;;;;4.88;3.67;;;16.70;99.90;;;;;;4140831;28;20540;-66
2023/08/09 06:17:31;;;;;;;3.83;3.42;;;16.70;99.90;;;;;;4139625;28;20557;-66
2023/08/09 06:19:33;;;;;;;3.63;2.92;;;16.70;99.90;;;;;;4142422;28;20533;-66
2023/08/09 06:21:33;;;;;;;2.78;2.50;;;16.70;99.90;;;;;;4140986;28;20034;-66
2023/08/09 06:23:34;;;;;;;3.00;2.70;;;16.70;99.90;;;;;;4142382;28;20494;-66
2023/08/09 06:25:36;;;;;;;3.80;2.90;;;16.70;99.90;;;;;;4139624;28;20036;-66
2023/08/09 06:27:37;;;;;;;3.35;3.05;;;16.70;99.90;;;;;;4139838;28;20023;-66
2023/08/09 06:29:37;;;;;;;3.95;3.17;;;16.80;99.90;;;;;;4131228;28;20036;-66
2023/08/09 06:31:38;;;;;;;4.22;3.33;;;16.80;99.90;;;;;;4143474;28;20511;-65
2023/08/09 06:33:42;;;;;;;3.63;3.30;;;16.80;99.90;;;;;;4141741;28;20038;-67
2023/08/09 06:35:43;;;;;;;3.55;2.78;;;16.70;99.90;;;;;;4142306;28;20037;-66
2023/08/09 06:37:46;;;;;;;3.50;3.20;;;16.70;99.90;;;;;;4146388;28;20565;-66
2023/08/09 06:39:47;;;;;;;4.78;3.35;;;16.70;99.90;;;;;;4143950;28;20051;-66
2023/08/09 06:41:48;;;;;;;3.83;2.90;;;16.70;99.90;;;;;;4138477;28;20510;-66
2023/08/09 06:43:49;;;;;;;3.05;2.75;;;16.70;99.90;;;;;;4137623;28;20033;-66
2023/08/09 06:45:51;;;;;;;3.53;3.05;;;16.70;99.90;;;;;;4135465;28;20065;-66
2023/08/09 06:47:52;;;;;;;4.00;3.00;;;16.70;99.90;;;;;;4157755;28;20518;-66
2023/08/09 06:49:53;;;;;;;4.00;3.03;;;16.70;99.90;;;;;;4140692;28;20037;-66
2023/08/09 06:51:55;;;;;;;4.10;3.38;;;16.70;99.90;;;;;;4137082;28;20040;-66
2023/08/09 06:53:55;;;;;;;3.35;2.63;;;16.70;99.90;;;;;;4140588;28;20513;-66
2023/08/09 06:55:56;;;;;;;3.17;2.83;;;16.80;99.90;;;;;;4152380;28;20053;-66
2023/08/09 06:57:56;;;;;;;3.25;2.95;;;16.80;99.90;;;;;;4138499;28;20039;-66
2023/08/09 06:59:57;;;;;;;4.65;2.90;;;16.80;99.90;;;;;;4143598;28;20034;-62
2023/08/09 07:01:58;;;;;;;4.13;3.20;;;16.80;99.90;;;;;;4143775;28;20425;-63
2023/08/09 07:03:59;;;;;;;3.38;2.90;;;16.80;99.90;;;;;;4144529;28;20386;-61
2023/08/09 07:05:59;;;;;;;2.55;2.35;;;16.80;99.90;;;;;;4142517;28;20042;-62
2023/08/09 07:08:00;;;;;;;4.20;2.47;;;16.80;99.90;;;;;;4142022;28;20069;-64
2023/08/09 07:10:00;;;;;;;4.28;3.53;;;16.80;99.90;;;;;;4143912;28;20066;-69
2023/08/09 07:12:01;;;;;;;2.25;2.05;;;16.80;99.90;;;;;;4144959;28;20048;-69
2023/08/09 07:14:02;;;;;;;3.20;2.90;;;16.90;99.90;;;;;;4142036;28;20041;-69
2023/08/09 07:16:02;;;;;;;3.10;2.80;;;16.90;99.90;;;;;;4140744;28;20037;-69
2023/08/09 07:18:03;;;;;;;3.10;2.80;;;16.90;99.90;;;;;;4138486;28;20117;-65
2023/08/09 07:20:11;;;;;;;2.35;2.15;;;16.90;99.90;;;;;;4137063;28;20026;-65
2023/08/09 07:22:12;;;;;;;3.42;3.13;;;17.00;99.90;;;;;;4137436;28;20353;-64
2023/08/09 07:24:13;;;;;;;3.25;2.83;;;17.00;99.90;;;;;;4140796;28;20434;-64
2023/08/09 07:26:13;;;;;;;4.55;3.53;;;17.00;99.90;;;;;;4143658;28;20501;-64
2023/08/09 07:28:14;;;;;;;5.22;4.05;;;17.00;99.90;;;;;;4139212;28;20038;-63
2023/08/09 07:30:17;;;;;;;3.35;2.58;;;17.00;99.90;;;;;;4136297;28;20482;-64
2023/08/09 07:32:18;;;;;;;3.05;2.72;;;17.00;99.90;;;;;;4140916;28;20038;-64
2023/08/09 07:34:19;;;;;;;3.63;2.75;;;17.10;99.90;;;;;;4135242;28;20048;-64
2023/08/09 07:36:19;;;;;;;3.00;2.70;;;17.10;99.90;;;;;;4127612;28;20038;-64
2023/08/09 07:38:20;;;;;;;3.20;2.90;;;17.10;99.90;;;;;;4143513;28;20128;-64
2023/08/09 07:40:21;;;;;;;5.78;3.00;;;17.20;99.90;;;;;;4158334;28;20436;-64
2023/08/09 07:42:21;;;;;;;3.22;2.80;;;17.20;99.90;;;;;;4143397;28;20104;-64
2023/08/09 07:44:22;;;;;;;3.05;2.65;;;17.20;99.90;;;;;;4137858;28;20132;-64
2023/08/09 07:46:22;;;;;;;4.68;3.20;;;17.30;99.90;;;;;;4137602;28;20041;-64
2023/08/09 07:48:23;;;;;;;4.20;3.50;;;17.30;99.90;;;;;;4141296;28;20026;-64
2023/08/09 07:50:24;;;;;;;4.25;3.38;;;17.30;99.90;;;;;;4142942;28;20455;-64
2023/08/09 07:52:26;;;;;;;3.03;2.72;;;17.30;99.90;;;;;;4140966;28;20052;-63
2023/08/09 07:54:27;;;;;;;3.55;2.90;;;17.20;99.90;;;;;;4131671;28;20456;-64
2023/08/09 07:56:28;;;;;;;3.17;2.80;;;17.20;99.90;;;;;;4144223;28;20033;-64
2023/08/09 07:58:28;;;;;;;3.53;2.90;;;17.30;99.90;;;;;;4143516;28;20034;-65
2023/08/09 08:00:30;;;;;;;3.67;2.70;;;17.30;99.90;;;;;;4143892;28;20037;-64
2023/08/09 08:02:31;;;;;;;4.95;3.35;;;17.40;99.90;;;;;;4142855;28;20045;-64
2023/08/09 08:04:32;;;;;;;4.13;3.20;;;17.50;99.90;;;;;;4137086;28;20042;-64
2023/08/09 08:06:32;;;;;;;6.30;3.13;;;17.40;99.90;;;;;;4127541;28;20057;-64
2023/08/09 08:08:34;;;;;;;2.85;2.55;;;17.40;99.90;;;;;;4143231;28;20100;-64
2023/08/09 08:10:34;;;;;;;3.53;2.45;;;17.50;99.90;;;;;;4146795;28;20088;-63
2023/08/09 08:12:36;;;;;;;3.05;2.42;;;17.50;99.90;;;;;;4145035;28;20034;-64
2023/08/09 08:14:37;;;;;;;2.45;2.25;;;17.50;99.90;;;;;;4157288;28;20048;-64
2023/08/09 08:16:38;;;;;;;3.58;2.75;;;17.60;99.90;;;;;;4141526;28;20034;-64
2023/08/09 08:18:38;;;;;;;2.83;2.30;;;17.60;99.90;;;;;;4141505;28;20025;-64
2023/08/09 08:20:39;;;;;;;3.05;2.15;;;17.70;99.90;;;;;;4118523;28;20042;-64
2023/08/09 08:22:40;;;;;;;2.13;1.92;;;17.70;99.90;;;;;;4132380;28;20026;-65
2023/08/09 08:24:40;;;;;;;3.95;2.72;;;17.70;99.90;;;;;;4143461;28;20068;-64
2023/08/09 08:26:41;;;;;;;2.83;2.40;;;17.80;99.90;;;;;;4142910;28;20097;-65
2023/08/09 08:28:41;;;;;;;4.38;2.78;;;17.90;99.90;;;;;;4145918;28;20034;-62
2023/08/09 08:30:42;;;;;;;2.83;2.30;;;17.90;99.90;;;;;;4152959;28;20125;-62
2023/08/09 08:32:46;;;;;;;3.97;2.53;;;18.00;99.90;;;;;;4158995;28;20053;-62
2023/08/09 08:34:47;;;;;;;2.72;2.05;;;18.00;99.90;;;;;;4158780;28;20037;-61
2023/08/09 08:36:49;;;;;;;2.80;2.00;;;18.10;99.90;;;;;;4160413;28;20382;-62
2023/08/09 08:38:50;;;;;;;2.55;2.35;;;18.20;99.90;;;;;;4156130;28;20575;-61
2023/08/09 08:40:52;;;;;;;3.38;2.80;;;18.30;99.90;;;;;;4158488;28;20041;-61
2023/08/09 08:42:52;;;;;;;3.38;2.70;;;18.40;99.90;;;;;;4158961;28;20116;-61
2023/08/09 08:44:53;;;;;;;5.68;2.58;;;18.40;99.90;;;;;;4151491;28;20041;-62
2023/08/09 08:46:55;;;;;;;3.03;2.70;;;18.50;99.90;;;;;;4158841;28;20567;-62
2023/08/09 08:49:00;;;;;;;2.95;2.08;;;18.50;99.90;;;;;;4155957;28;20144;-62
2023/08/09 08:51:05;;;;;;;2.78;2.20;;;18.60;99.90;;;;;;4143685;28;20406;-61
2023/08/09 08:53:06;;;;;;;2.15;1.95;;;18.60;99.90;;;;;;4150080;28;20460;-62
2023/08/09 08:55:09;;;;;;;2.80;1.85;;;18.60;99.90;;;;;;4142945;28;20038;-64
2023/08/09 08:57:12;;;;;;;2.30;1.50;;;18.70;99.90;;;;;;4140909;28;20041;-62
2023/08/09 08:59:13;;;;;;;2.60;1.75;;;18.80;99.90;;;;;;4139205;28;20168;-62
2023/08/09 09:01:15;;;;;;;2.30;2.05;;;18.90;99.90;;;;;;4139812;28;20093;-62
2023/08/09 09:03:15;;;;;;;3.28;1.75;;;19.00;99.90;;;;;;4128272;28;20042;-62
2023/08/09 09:05:17;;;;;;;2.05;1.70;;;19.00;99.90;;;;;;4140950;28;20045;-61
2023/08/09 09:07:17;;;;;;;1.67;1.55;;;19.10;99.90;;;;;;4144611;28;20034;-61
2023/08/09 09:09:18;;;;;;;3.38;2.15;;;19.20;99.90;;;;;;4141118;28;20084;-62
2023/08/09 09:11:21;;;;;;;2.33;1.95;;;19.30;99.90;;;;;;4142273;28;20034;-61
2023/08/09 09:13:24;;;;;;;2.05;1.85;;;19.40;99.90;;;;;;4128271;28;20382;-61
2023/08/09 09:15:27;;;;;;;2.88;1.85;;;19.40;99.90;;;;;;4129315;28;20038;-61
2023/08/09 09:17:27;;;;;;;2.95;1.83;;;19.60;99.90;;;;;;4143868;28;20026;-61
2023/08/09 09:19:33;;;;;;;1.73;1.55;;;19.60;99.90;;;;;;4143007;28;20115;-62
2023/08/09 09:21:35;;;;;;;1.95;1.50;;;19.70;99.90;;;;;;4128511;28;20034;-62
2023/08/09 09:23:37;;;;;;;2.08;1.48;;;19.70;99.90;;;;;;4142192;28;20044;-62
2023/08/09 09:25:40;;;;;;;2.28;1.80;;;19.80;99.90;;;;;;4145705;28;20213;-61
2023/08/09 09:27:40;;;;;;;1.83;1.48;;;19.80;99.90;;;;;;4143025;28;20514;-62
2023/08/09 09:29:41;;;;;;;1.75;1.45;;;19.80;99.90;;;;;;4160051;28;20037;-62
2023/08/09 09:31:42;;;;;;;2.28;1.48;;;19.80;99.90;;;;;;4138161;28;20046;-62
2023/08/09 09:33:46;;;;;;;3.75;1.65;;;19.80;99.90;;;;;;4146479;28;20037;-62
2023/08/09 09:35:47;;;;;;;1.73;1.35;;;19.90;99.90;;;;;;4127033;28;20066;-61
2023/08/09 09:38:08;;;;;;;1.38;1.20;;;19.90;99.90;;;;;;4133024;28;20022;-69
2023/08/09 09:40:10;;;;;;;1.40;1.30;;;19.90;99.90;;;;;;4146454;28;20033;-62
2023/08/09 09:42:13;;;;;;;1.60;1.50;;;20.00;99.90;;;;;;4143843;28;20111;-62
2023/08/09 09:44:20;;;;;;;1.88;1.60;;;20.00;99.90;;;;;;4135415;28;20030;-62
2023/08/09 09:46:23;;;;;;;2.03;1.55;;;20.00;99.90;;;;;;4127710;28;20522;-61
2023/08/09 09:48:25;;;;;;;3.03;1.60;;;20.10;99.90;;;;;;4145490;28;20108;-61
2023/08/09 09:50:29;;;;;;;2.75;1.67;;;20.10;99.90;;;;;;4143265;28;20105;-61
2023/08/09 09:52:31;;;;;;;6.15;2.00;;;20.10;99.90;;;;;;4153088;28;20109;-61
2023/08/09 09:54:33;;;;;;;2.63;1.30;;;20.20;99.90;;;;;;4140515;28;21976;-61
2023/08/09 09:56:35;;;;;;;2.90;1.83;;;20.10;99.90;;;;;;4139005;28;20034;-61
2023/08/09 09:58:36;;;;;;;3.15;2.00;;;20.10;99.90;;;;;;4137704;28;20033;-61
2023/08/09 10:00:37;;;;;;;2.28;1.65;;;20.10;99.90;;;;;;4139735;28;20033;-61
2023/08/09 10:02:50;;;;;;;2.25;1.88;;;20.10;99.90;;;;;;4145678;28;20037;-61
2023/08/09 10:04:51;;;;;;;2.13;1.70;;;20.10;99.90;;;;;;4160539;28;20537;-61
2023/08/09 10:06:52;;;;;;;3.50;1.90;;;20.10;99.90;;;;;;4161599;28;20041;-61
2023/08/09 10:08:55;;;;;;;2.05;1.65;;;20.20;99.90;;;;;;4159527;28;20048;-61
2023/08/09 10:10:57;;;;;;;1.88;1.33;;;20.30;99.90;;;;;;4159203;28;20030;-61
2023/08/09 10:13:00;;;;;;;1.23;1.10;;;20.30;99.90;;;;;;4159967;28;20079;-62
2023/08/09 10:15:04;;;;;;;3.03;1.60;;;20.40;99.90;;;;;;4154084;28;20034;-61
2023/08/09 10:17:05;;;;;;;2.83;1.85;;;20.40;99.90;;;;;;4153834;28;20030;-61
2023/08/09 10:19:12;;;;;;;2.25;1.63;;;20.50;99.90;;;;;;4157791;28;20037;-61
2023/08/09 10:21:16;;;;;;;1.70;1.25;;;20.50;99.90;;;;;;4152731;28;20034;-62
2023/08/09 10:23:25;;;;;;;1.33;1.10;;;20.50;99.90;;;;;;4154226;28;20088;-62
2023/08/09 10:25:43;;;;;;;2.28;1.70;;;20.50;99.90;;;;;;4153677;28;20034;-61
2023/08/09 10:27:50;;;;;;;2.53;1.40;;;20.50;99.90;;;;;;4150458;28;20558;-61
2023/08/09 10:29:57;;;;;;;3.00;1.60;;;20.60;99.90;;;;;;4152938;28;20037;-61
2023/08/09 10:31:59;;;;;;;3.00;1.70;;;20.60;99.90;;;;;;4153045;28;20107;-61
2023/08/09 10:34:06;;;;;;;1.77;1.58;;;20.70;99.90;;;;;;4155372;28;20033;-61